Terminal Aerodrome Forecast
Issued by NWS

Home | Current Version | Previous Version | Graphics & Text | Print | Product List | Glossary On
Versions: 1 2 3 4 5 6 7 8 9 10 11 12
000
FTUS43 KGRB 231133
TAFATW
TAF
KATW 231133Z 2312/2412 24005KT P6SM SCT250 WS020/23030KT
     FM231600 20008G14KT P6SM SCT250
     FM240200 18005KT P6SM SKC=

USA.gov is the U.S. government's official web portal to all federal, state and local government web resources and services.